createdAt,value
2018-06-14T00:00:16.435Z,1008.02
2018-06-14T00:00:56.814Z,1008
2018-06-14T00:01:37.167Z,1008.03
2018-06-14T00:02:17.655Z,1008
2018-06-14T00:02:58.094Z,1008.01
2018-06-14T00:03:38.476Z,1007.99
2018-06-14T00:04:18.860Z,1008.03
2018-06-14T00:04:59.366Z,1008.03
2018-06-14T00:05:39.757Z,1008.05
2018-06-14T00:06:20.176Z,1008.05
2018-06-14T00:07:00.556Z,1008.06
2018-06-14T00:07:40.915Z,1008.05
2018-06-14T00:08:21.431Z,1008.06
2018-06-14T00:09:01.736Z,1008.06
2018-06-14T00:09:42.182Z,1008.05
2018-06-14T00:10:22.532Z,1008.06
2018-06-14T00:11:03.070Z,1008.04
2018-06-14T00:11:43.390Z,1008.03
2018-06-14T00:12:23.862Z,1008
2018-06-14T00:13:04.326Z,1008
2018-06-14T00:13:44.638Z,1007.97
2018-06-14T00:14:25.106Z,1007.96
2018-06-14T00:15:05.973Z,1007.97
2018-06-14T00:15:46.268Z,1008.03
2018-06-14T00:16:26.699Z,1007.97
2018-06-14T00:17:07.123Z,1007.96
2018-06-14T00:17:47.436Z,1007.94
2018-06-14T00:18:28.126Z,1007.96
2018-06-14T00:19:08.593Z,1007.91
2018-06-14T00:19:48.942Z,1007.88
2018-06-14T00:20:29.336Z,1007.9
2018-06-14T00:21:09.805Z,1007.91
2018-06-14T00:21:50.286Z,1007.92
2018-06-14T00:22:30.842Z,1007.86
2018-06-14T00:23:11.234Z,1007.89
2018-06-14T00:23:51.546Z,1007.91
2018-06-14T00:24:31.999Z,1007.88
2018-06-14T00:25:12.391Z,1007.88
2018-06-14T00:25:52.755Z,1007.92
2018-06-14T00:26:33.273Z,1007.9
2018-06-14T00:27:13.720Z,1007.91
2018-06-14T00:27:54.072Z,1007.91
2018-06-14T00:28:34.490Z,1007.92
2018-06-14T00:29:14.837Z,1007.93
2018-06-14T00:29:55.299Z,1007.92
2018-06-14T00:30:35.672Z,1007.92
2018-06-14T00:31:16.115Z,1007.96
2018-06-14T00:31:56.482Z,1007.95
2018-06-14T00:32:36.963Z,1007.97
2018-06-14T00:33:17.251Z,1007.95
2018-06-14T00:33:57.762Z,1007.96
2018-06-14T00:34:38.034Z,1007.97
2018-06-14T00:35:18.614Z,1007.93
2018-06-14T00:35:59.142Z,1007.94
2018-06-14T00:36:39.817Z,1007.97
2018-06-14T00:37:20.143Z,1007.94
2018-06-14T00:38:00.465Z,1007.94
2018-06-14T00:38:41.088Z,1007.92
2018-06-14T00:39:21.383Z,1007.94
2018-06-14T00:40:01.777Z,1007.92
2018-06-14T00:40:42.213Z,1007.93
2018-06-14T00:41:22.630Z,1007.91
2018-06-14T00:42:03.061Z,1007.92
2018-06-14T00:42:43.410Z,1007.94
2018-06-14T00:43:23.894Z,1007.95
2018-06-14T00:44:04.315Z,1007.94
2018-06-14T00:44:44.725Z,1007.98
2018-06-14T00:45:25.161Z,1007.96
2018-06-14T00:46:05.580Z,1007.97
2018-06-14T00:46:45.910Z,1007.95
2018-06-14T00:47:26.337Z,1007.94
2018-06-14T00:48:06.791Z,1007.93
2018-06-14T00:48:47.137Z,1007.91
2018-06-14T00:49:27.594Z,1007.89
2018-06-14T00:50:07.972Z,1007.95
2018-06-14T00:50:48.457Z,1007.91
2018-06-14T00:51:29.090Z,1007.87
2018-06-14T00:52:09.515Z,1007.91
2018-06-14T00:52:50.185Z,1007.9
2018-06-14T00:53:30.632Z,1007.95
2018-06-14T00:54:11.144Z,1007.94
2018-06-14T00:54:51.452Z,1007.91
2018-06-14T00:55:31.843Z,1007.91
2018-06-14T00:56:12.804Z,1007.94
2018-06-14T00:56:53.250Z,1007.92
2018-06-14T00:57:33.795Z,1007.91
2018-06-14T00:58:14.099Z,1007.9
2018-06-14T00:58:54.594Z,1007.86
2018-06-14T00:59:36.012Z,1007.89
2018-06-14T01:00:15.642Z,1007.89
2018-06-14T01:00:56.066Z,1007.87
2018-06-14T01:01:36.689Z,1007.89
2018-06-14T01:02:19.078Z,1007.87
2018-06-14T01:02:59.472Z,1007.89
2018-06-14T01:03:39.815Z,1007.85
2018-06-14T01:04:20.208Z,1007.84
2018-06-14T01:05:00.742Z,1007.87
2018-06-14T01:05:41.109Z,1007.82
2018-06-14T01:06:21.455Z,1007.88
2018-06-14T01:07:01.885Z,1007.85
2018-06-14T01:07:42.802Z,1007.84
2018-06-14T01:08:23.176Z,1007.84
2018-06-14T01:09:03.529Z,1007.85
2018-06-14T01:09:44.005Z,1007.82
2018-06-14T01:10:24.351Z,1007.84
2018-06-14T01:11:04.813Z,1007.8
2018-06-14T01:11:45.168Z,1007.82
2018-06-14T01:12:25.612Z,1007.81
2018-06-14T01:13:06.123Z,1007.78
2018-06-14T01:13:47.147Z,1007.77
2018-06-14T01:14:28.361Z,1007.77
2018-06-14T01:15:08.838Z,1007.79
2018-06-14T01:15:49.220Z,1007.76
2018-06-14T01:16:29.618Z,1007.79
2018-06-14T01:17:10.007Z,1007.79
2018-06-14T01:17:50.511Z,1007.79
2018-06-14T01:18:30.832Z,1007.8
2018-06-14T01:19:11.246Z,1007.78
2018-06-14T01:19:51.777Z,1007.78
2018-06-14T01:20:32.368Z,1007.79
2018-06-14T01:21:12.712Z,1007.8
2018-06-14T01:21:53.210Z,1007.8
2018-06-14T01:22:33.554Z,1007.75
2018-06-14T01:23:13.940Z,1007.73
2018-06-14T01:23:54.427Z,1007.75
2018-06-14T01:24:34.894Z,1007.73
2018-06-14T01:25:15.158Z,1007.72
2018-06-14T01:25:55.569Z,1007.74
2018-06-14T01:26:35.963Z,1007.73
2018-06-14T01:27:17.052Z,1007.72
2018-06-14T01:27:57.514Z,1007.7
2018-06-14T01:28:37.998Z,1007.68
2018-06-14T01:29:19.804Z,1007.74
2018-06-14T01:30:00.385Z,1007.74
2018-06-14T01:30:40.886Z,1007.69
2018-06-14T01:31:21.256Z,1007.73
2018-06-14T01:32:01.751Z,1007.74
2018-06-14T01:32:42.099Z,1007.7
2018-06-14T01:33:22.627Z,1007.71
2018-06-14T01:34:03.929Z,1007.7
2018-06-14T01:34:44.384Z,1007.72
2018-06-14T01:35:25.152Z,1007.71
2018-06-14T01:36:05.558Z,1007.73
2018-06-14T01:36:46.478Z,1007.69
2018-06-14T01:37:26.763Z,1007.69
2018-06-14T01:38:07.715Z,1007.7
2018-06-14T01:38:48.155Z,1007.71
2018-06-14T01:39:28.513Z,1007.7
2018-06-14T01:40:09.027Z,1007.74
2018-06-14T01:40:49.401Z,1007.7
2018-06-14T01:41:29.797Z,1007.76
2018-06-14T01:42:10.277Z,1007.7
2018-06-14T01:42:51.715Z,1007.72
2018-06-14T01:43:32.374Z,1007.7
2018-06-14T01:44:13.621Z,1007.7
2018-06-14T01:44:54.270Z,1007.67
2018-06-14T01:45:34.641Z,1007.71
2018-06-14T01:46:16.494Z,1007.71
2018-06-14T01:46:56.934Z,1007.66
2018-06-14T01:47:37.412Z,1007.67
2018-06-14T01:48:17.695Z,1007.65
2018-06-14T01:48:58.065Z,1007.69
2018-06-14T01:49:38.736Z,1007.67
2018-06-14T01:50:21.076Z,1007.68
2018-06-14T01:51:01.435Z,1007.64
2018-06-14T01:51:41.967Z,1007.66
2018-06-14T01:52:24.891Z,1007.64
2018-06-14T01:53:06.055Z,1007.65
2018-06-14T01:53:46.553Z,1007.67
2018-06-14T01:54:26.766Z,1007.67
2018-06-14T01:55:07.077Z,1007.65
2018-06-14T01:55:47.506Z,1007.66
2018-06-14T01:56:27.883Z,1007.65
2018-06-14T01:57:08.268Z,1007.62
2018-06-14T01:57:48.752Z,1007.59
2018-06-14T01:58:29.129Z,1007.62
2018-06-14T01:59:09.655Z,1007.68
2018-06-14T01:59:50.826Z,1007.67
2018-06-14T02:00:31.181Z,1007.62
2018-06-14T02:01:11.565Z,1007.64
2018-06-14T02:01:52.270Z,1007.66
2018-06-14T02:02:32.664Z,1007.69
2018-06-14T02:03:13.018Z,1007.68
2018-06-14T02:03:54.090Z,1007.71
2018-06-14T02:04:35.085Z,1007.69
2018-06-14T02:05:15.203Z,1007.68
2018-06-14T02:05:55.667Z,1007.7
2018-06-14T02:06:36.160Z,1007.69
2018-06-14T02:07:16.509Z,1007.68
2018-06-14T02:07:56.916Z,1007.68
2018-06-14T02:08:37.840Z,1007.68
2018-06-14T02:09:18.817Z,1007.67
2018-06-14T02:09:59.266Z,1007.67
2018-06-14T02:10:39.979Z,1007.68
2018-06-14T02:11:21.417Z,1007.69
2018-06-14T02:12:03.623Z,1007.69
2018-06-14T02:12:43.949Z,1007.69
2018-06-14T02:13:26.862Z,1007.66
2018-06-14T02:14:07.244Z,1007.63
2018-06-14T02:14:47.851Z,1007.65
2018-06-14T02:15:28.565Z,1007.63
2018-06-14T02:16:09.087Z,1007.63
2018-06-14T02:16:49.561Z,1007.61
2018-06-14T02:17:31.106Z,1007.66
2018-06-14T02:18:11.449Z,1007.63
2018-06-14T02:18:51.848Z,1007.61
2018-06-14T02:19:32.414Z,1007.61
2018-06-14T02:20:12.900Z,1007.59
2018-06-14T02:20:53.596Z,1007.61
2018-06-14T02:21:34.119Z,1007.58
2018-06-14T02:22:14.561Z,1007.62
2018-06-14T02:22:55.028Z,1007.6
2018-06-14T02:23:35.553Z,1007.61
2018-06-14T02:24:15.956Z,1007.6
2018-06-14T02:24:56.330Z,1007.61
2018-06-14T02:25:36.786Z,1007.63
2018-06-14T02:26:17.104Z,1007.6
2018-06-14T02:26:57.556Z,1007.59
2018-06-14T02:27:37.934Z,1007.64
2018-06-14T02:28:18.323Z,1007.6
2018-06-14T02:28:58.853Z,1007.59
2018-06-14T02:29:39.811Z,1007.59
2018-06-14T02:30:21.475Z,1007.56
2018-06-14T02:31:00.751Z,1007.6
2018-06-14T02:31:41.133Z,1007.57
2018-06-14T02:32:22.106Z,1007.55
2018-06-14T02:33:02.629Z,1007.61
2018-06-14T02:33:43.051Z,1007.63
2018-06-14T02:34:23.985Z,1007.63
2018-06-14T02:35:04.313Z,1007.63
2018-06-14T02:35:44.754Z,1007.65
2018-06-14T02:36:25.763Z,1007.66
2018-06-14T02:37:07.741Z,1007.62
2018-06-14T02:37:48.237Z,1007.66
2018-06-14T02:38:28.659Z,1007.68
2018-06-14T02:39:09.201Z,1007.68
2018-06-14T02:39:50.288Z,1007.65
2018-06-14T02:40:30.638Z,1007.64
2018-06-14T02:41:11.155Z,1007.63
2018-06-14T02:41:51.598Z,1007.61
2018-06-14T02:42:31.834Z,1007.59
2018-06-14T02:43:12.318Z,1007.62
2018-06-14T02:43:52.779Z,1007.62
2018-06-14T02:44:33.181Z,1007.6
2018-06-14T02:45:13.527Z,1007.59
2018-06-14T02:45:54.163Z,1007.57
2018-06-14T02:46:34.437Z,1007.54
2018-06-14T02:47:15.872Z,1007.53
2018-06-14T02:47:56.638Z,1007.57
2018-06-14T02:48:36.841Z,1007.57
2018-06-14T02:49:17.658Z,1007.55
2018-06-14T02:49:58.068Z,1007.57
2018-06-14T02:50:38.557Z,1007.56
2018-06-14T02:51:18.857Z,1007.59
2018-06-14T02:51:59.234Z,1007.58
2018-06-14T02:52:39.682Z,1007.55
2018-06-14T02:53:19.969Z,1007.55
2018-06-14T02:54:00.488Z,1007.57
2018-06-14T02:54:41.052Z,1007.55
2018-06-14T02:55:22.235Z,1007.54
2018-06-14T02:56:02.611Z,1007.54
2018-06-14T02:56:43.151Z,1007.54
2018-06-14T02:57:24.387Z,1007.52
2018-06-14T02:58:04.755Z,1007.54
2018-06-14T02:58:45.128Z,1007.52
2018-06-14T02:59:27.736Z,1007.51
2018-06-14T03:00:07.986Z,1007.52
2018-06-14T03:00:49.069Z,1007.49
2018-06-14T03:01:31.488Z,1007.5
2018-06-14T03:02:11.923Z,1007.5
2018-06-14T03:02:53.246Z,1007.52
2018-06-14T03:03:33.600Z,1007.5
2018-06-14T03:04:14.387Z,1007.47
2018-06-14T03:04:55.059Z,1007.51
2018-06-14T03:05:35.290Z,1007.49
2018-06-14T03:06:15.706Z,1007.48
2018-06-14T03:06:56.232Z,1007.45
2018-06-14T03:07:36.937Z,1007.41
2018-06-14T03:08:17.429Z,1007.43
2018-06-14T03:09:02.515Z,1007.41
2018-06-14T03:09:41.903Z,1007.45
2018-06-14T03:10:22.298Z,1007.45
2018-06-14T03:11:02.796Z,1007.41
2018-06-14T03:11:44.109Z,1007.44
2018-06-14T03:12:24.721Z,1007.39
2018-06-14T03:13:05.236Z,1007.36
2018-06-14T03:13:45.973Z,1007.34
2018-06-14T03:14:26.620Z,1007.37
2018-06-14T03:15:09.450Z,1007.35
2018-06-14T03:15:49.863Z,1007.34
2018-06-14T03:16:31.050Z,1007.39
2018-06-14T03:17:12.214Z,1007.34
2018-06-14T03:17:52.720Z,1007.39
2018-06-14T03:18:32.997Z,1007.38
2018-06-14T03:19:13.367Z,1007.41
2018-06-14T03:19:53.918Z,1007.31
2018-06-14T03:20:34.299Z,1007.36
2018-06-14T03:21:16.208Z,1007.32
2018-06-14T03:21:57.031Z,1007.36
2018-06-14T03:22:37.376Z,1007.3
2018-06-14T03:23:17.852Z,1007.31
2018-06-14T03:23:58.785Z,1007.27
2018-06-14T03:24:39.999Z,1007.24
2018-06-14T03:25:22.845Z,1007.28
2018-06-14T03:26:03.283Z,1007.29
2018-06-14T03:26:43.913Z,1007.29
2018-06-14T03:27:24.450Z,1007.28
2018-06-14T03:28:05.249Z,1007.3
2018-06-14T03:28:45.568Z,1007.23
2018-06-14T03:29:26.061Z,1007.23
2018-06-14T03:30:08.804Z,1007.25
2018-06-14T03:30:48.579Z,1007.21
2018-06-14T03:31:29.009Z,1007.2
2018-06-14T03:32:10.447Z,1007.23
2018-06-14T03:32:50.848Z,1007.23
2018-06-14T03:33:31.268Z,1007.18
2018-06-14T03:34:11.783Z,1007.18
2018-06-14T03:34:52.237Z,1007.19
2018-06-14T03:35:33.628Z,1007.22
2018-06-14T03:36:14.039Z,1007.23
2018-06-14T03:36:54.365Z,1007.21
2018-06-14T03:37:34.803Z,1007.22
2018-06-14T03:38:18.724Z,1007.19
2018-06-14T03:38:59.096Z,1007.21
2018-06-14T03:39:39.854Z,1007.17
2018-06-14T03:40:20.180Z,1007.18
2018-06-14T03:41:00.531Z,1007.18
2018-06-14T03:41:40.920Z,1007.16
2018-06-14T03:42:21.723Z,1007.19
2018-06-14T03:43:02.047Z,1007.18
2018-06-14T03:43:42.573Z,1007.2
2018-06-14T03:44:23.962Z,1007.24
2018-06-14T03:45:04.016Z,1007.21
2018-06-14T03:45:44.444Z,1007.23
2018-06-14T03:46:24.879Z,1007.22
2018-06-14T03:47:05.322Z,1007.26
2018-06-14T03:47:45.642Z,1007.22
2018-06-14T03:48:26.072Z,1007.22
2018-06-14T03:49:06.501Z,1007.24
2018-06-14T03:49:46.855Z,1007.2
2018-06-14T03:50:27.410Z,1007.28
2018-06-14T03:51:07.774Z,1007.23
2018-06-14T03:51:48.147Z,1007.23
2018-06-14T03:52:28.540Z,1007.21
2018-06-14T03:53:08.986Z,1007.23
2018-06-14T03:53:49.380Z,1007.2
2018-06-14T03:54:29.814Z,1007.23
2018-06-14T03:55:10.263Z,1007.21
2018-06-14T03:55:50.677Z,1007.21
2018-06-14T03:56:31.249Z,1007.22
2018-06-14T03:57:11.563Z,1007.21
2018-06-14T03:57:52.004Z,1007.28
2018-06-14T03:58:32.393Z,1007.23
2018-06-14T03:59:13.451Z,1007.23
2018-06-14T03:59:53.390Z,1007.23
2018-06-14T04:00:33.882Z,1007.23
2018-06-14T04:01:15.859Z,1007.25
2018-06-14T04:01:56.282Z,1007.26
2018-06-14T04:02:37.057Z,1007.28
2018-06-14T04:51:53.708Z,1007.25
2018-06-14T04:52:33.803Z,1007.21
2018-06-14T04:53:14.185Z,1007.25
2018-06-14T04:53:54.588Z,1007.26
2018-06-14T04:54:34.997Z,1007.3
2018-06-14T04:55:15.391Z,1007.31
2018-06-14T04:55:55.968Z,1007.27
2018-06-14T04:56:36.241Z,1007.22
2018-06-14T04:57:16.916Z,1007.21
2018-06-14T04:57:57.931Z,1007.21
2018-06-14T04:58:38.546Z,1007.21
2018-06-14T04:59:18.804Z,1007.2
2018-06-14T04:59:59.184Z,1007.19
2018-06-14T05:00:39.597Z,1007.18
2018-06-14T05:01:20.068Z,1007.24
2018-06-14T05:02:00.539Z,1007.27
2018-06-14T05:02:41.302Z,1007.3
2018-06-14T05:03:21.755Z,1007.3
2018-06-14T05:04:02.247Z,1007.26
2018-06-14T05:04:42.733Z,1007.28
2018-06-14T05:05:23.001Z,1007.28
2018-06-14T05:06:03.534Z,1007.29
2018-06-14T05:06:44.031Z,1007.29
2018-06-14T05:07:24.335Z,1007.29
2018-06-14T05:08:04.830Z,1007.29
2018-06-14T05:08:45.310Z,1007.27
2018-06-14T05:09:25.728Z,1007.25
2018-06-14T05:10:06.162Z,1007.24
2018-06-14T05:10:46.654Z,1007.32
2018-06-14T05:11:27.169Z,1007.28
2018-06-14T05:12:07.689Z,1007.26
2018-06-14T05:12:48.073Z,1007.29
2018-06-14T05:13:28.412Z,1007.29
2018-06-14T05:14:08.792Z,1007.29
2018-06-14T05:14:49.249Z,1007.29
2018-06-14T05:15:29.681Z,1007.32
2018-06-14T05:16:10.190Z,1007.32
2018-06-14T05:16:50.964Z,1007.27
2018-06-14T05:17:32.332Z,1007.24
2018-06-14T05:18:12.808Z,1007.32
2018-06-14T05:18:53.179Z,1007.25
2018-06-14T05:19:33.688Z,1007.33
2018-06-14T05:20:14.688Z,1007.26
2018-06-14T05:20:55.151Z,1007.31
2018-06-14T05:21:35.671Z,1007.28
2018-06-14T05:22:16.017Z,1007.32
2018-06-14T05:22:56.580Z,1007.28
2018-06-14T05:23:37.031Z,1007.35
2018-06-14T05:24:17.709Z,1007.33
2018-06-14T05:24:58.026Z,1007.29
2018-06-14T05:25:38.445Z,1007.32
2018-06-14T05:26:18.853Z,1007.29
2018-06-14T05:26:59.277Z,1007.32
2018-06-14T05:27:39.721Z,1007.33
2018-06-14T05:28:20.079Z,1007.38
2018-06-14T05:29:00.537Z,1007.32
2018-06-14T05:29:41.551Z,1007.32
2018-06-14T05:30:36.347Z,1007.31
2018-06-14T05:31:16.816Z,1007.36
2018-06-14T05:31:57.200Z,1007.33
2018-06-14T05:32:37.633Z,1007.34
2018-06-14T05:33:18.087Z,1007.35
2018-06-14T05:33:58.486Z,1007.34
2018-06-14T05:34:39.046Z,1007.36
2018-06-14T05:35:19.414Z,1007.34
2018-06-14T05:36:00.197Z,1007.32
2018-06-14T05:36:41.187Z,1007.27
2018-06-14T05:37:21.948Z,1007.33
2018-06-14T05:38:02.305Z,1007.32
2018-06-14T05:38:42.753Z,1007.35
2018-06-14T05:39:23.094Z,1007.34
2018-06-14T05:40:03.589Z,1007.29
2018-06-14T05:40:44.020Z,1007.29
2018-06-14T05:41:24.476Z,1007.3
2018-06-14T05:42:04.901Z,1007.38
2018-06-14T05:42:45.377Z,1007.33
2018-06-14T05:43:25.958Z,1007.37
2018-06-14T05:44:06.386Z,1007.38
2018-06-14T05:44:46.878Z,1007.36
2018-06-14T05:45:27.330Z,1007.38
2018-06-14T05:46:09.119Z,1007.39
2018-06-14T05:46:49.985Z,1007.34
2018-06-14T05:47:30.613Z,1007.32
2018-06-14T05:48:11.028Z,1007.29
2018-06-14T05:48:51.640Z,1007.28
2018-06-14T05:49:32.722Z,1007.31
2018-06-14T05:50:13.262Z,1007.3
2018-06-14T05:50:53.681Z,1007.29
2018-06-14T05:51:34.718Z,1007.3
2018-06-14T05:52:29.796Z,1007.27
2018-06-14T05:53:10.865Z,1007.21
2018-06-14T05:53:51.511Z,1007.23
2018-06-14T05:56:44.723Z,1007.25
2018-06-14T05:58:14.341Z,1007.28
2018-06-14T05:58:54.736Z,1007.24
2018-06-14T05:59:35.231Z,1007.27
2018-06-14T06:00:16.781Z,1007.27
2018-06-14T06:00:56.889Z,1007.3
2018-06-14T06:01:37.673Z,1007.33
2018-06-14T06:02:19.425Z,1007.32
2018-06-14T06:03:00.819Z,1007.31
2018-06-14T06:03:42.104Z,1007.32
2018-06-14T06:04:22.523Z,1007.35
2018-06-14T06:05:02.994Z,1007.33
2018-06-14T06:05:43.364Z,1007.3
2018-06-14T06:06:23.817Z,1007.37
2018-06-14T06:07:04.171Z,1007.33
2018-06-14T06:07:44.639Z,1007.38
2018-06-14T06:08:25.252Z,1007.32
2018-06-14T06:09:05.659Z,1007.32
2018-06-14T06:09:46.103Z,1007.34
2018-06-14T06:10:26.716Z,1007.35
2018-06-14T06:11:07.055Z,1007.38
2018-06-14T06:11:47.526Z,1007.38
2018-06-14T06:12:28.108Z,1007.35
2018-06-14T06:13:08.467Z,1007.34
2018-06-14T06:13:49.027Z,1007.31
2018-06-14T06:14:29.455Z,1007.29
2018-06-14T06:15:09.982Z,1007.32
2018-06-14T06:15:50.623Z,1007.34
2018-06-14T06:16:31.036Z,1007.3
2018-06-14T06:17:11.369Z,1007.31
2018-06-14T06:17:51.756Z,1007.34
2018-06-14T06:18:33.154Z,1007.3
2018-06-14T06:19:16.850Z,1007.33
2018-06-14T06:19:56.523Z,1007.33
2018-06-14T06:20:36.979Z,1007.34
2018-06-14T06:21:17.464Z,1007.3
2018-06-14T06:21:57.891Z,1007.33
2018-06-14T06:22:38.473Z,1007.35
2018-06-14T06:23:18.721Z,1007.3
2018-06-14T06:23:59.172Z,1007.26
2018-06-14T06:24:39.718Z,1007.24
2018-06-14T06:25:20.189Z,1007.25
2018-06-14T06:26:00.643Z,1007.25
2018-06-14T06:26:41.177Z,1007.16
2018-06-14T06:27:21.480Z,1007.16
2018-06-14T06:28:02.798Z,1007.18
2018-06-14T06:28:43.265Z,1007.24
2018-06-14T06:29:23.626Z,1007.22
2018-06-14T06:30:04.091Z,1007.18
2018-06-14T06:30:44.450Z,1007.18
2018-06-14T06:31:24.840Z,1007.19
2018-06-14T06:32:05.307Z,1007.15
2018-06-14T06:32:45.731Z,1007.17
2018-06-14T06:33:26.451Z,1007.14
2018-06-14T06:34:06.721Z,1007.14
2018-06-14T06:34:47.287Z,1007.13
2018-06-14T06:35:27.617Z,1007.16
2018-06-14T06:36:08.658Z,1007.17
2018-06-14T06:36:49.190Z,1007.17
2018-06-14T06:37:29.661Z,1007.15
2018-06-14T06:38:10.067Z,1007.11
2018-06-14T06:38:50.462Z,1007.14
2018-06-14T06:39:30.909Z,1007.1
2018-06-14T06:40:11.367Z,1007.14
2018-06-14T06:40:51.812Z,1007.15
2018-06-14T06:41:32.238Z,1007.06
2018-06-14T06:42:12.716Z,1007.05
2018-06-14T06:42:53.172Z,1007.1
2018-06-14T06:43:33.697Z,1007.08
2018-06-14T06:45:38.049Z,1007.06
2018-06-14T06:46:21.710Z,1007.07
2018-06-14T06:47:02.171Z,1007.05
2018-06-14T06:47:42.569Z,1007.04
2018-06-14T06:48:23.024Z,1007.01
2018-06-14T06:49:03.485Z,1007.03
2018-06-14T06:49:43.921Z,1007.07
2018-06-14T06:50:24.379Z,1007.03
2018-06-14T06:51:04.915Z,1007.04
2018-06-14T06:51:45.418Z,1006.98
2018-06-14T06:52:25.969Z,1006.98
2018-06-14T06:53:06.420Z,1007.05
2018-06-14T06:53:46.819Z,1007.04
2018-06-14T06:54:27.187Z,1007.02
2018-06-14T06:55:07.779Z,1007.05
2018-06-14T06:55:48.358Z,1007.03
2018-06-14T06:56:28.925Z,1007
2018-06-14T06:57:09.343Z,1006.98
2018-06-14T06:57:49.707Z,1007
2018-06-14T06:58:30.261Z,1006.96
2018-06-14T06:59:11.635Z,1006.96
2018-06-14T06:59:52.687Z,1007.02
2018-06-14T07:00:33.016Z,1006.93
2018-06-14T07:01:13.733Z,1006.94
2018-06-14T07:01:55.201Z,1006.94
2018-06-14T07:02:35.370Z,1006.95
2018-06-14T07:03:15.805Z,1006.96
2018-06-14T07:03:56.441Z,1006.99
2018-06-14T07:04:37.318Z,1006.99
2018-06-14T07:05:18.013Z,1006.99
2018-06-14T07:05:58.457Z,1006.99
2018-06-14T07:06:38.812Z,1006.99
2018-06-14T07:07:19.303Z,1007.02
2018-06-14T07:08:00.157Z,1007.03
2018-06-14T07:08:41.487Z,1007.05
2018-06-14T07:09:21.961Z,1007.05
2018-06-14T07:10:02.339Z,1007.08
2018-06-14T07:10:42.750Z,1007.06
2018-06-14T07:11:25.255Z,1007.03
2018-06-14T07:12:05.547Z,1007.05
2018-06-14T07:12:46.249Z,1006.99
2018-06-14T07:13:26.504Z,1006.98
2018-06-14T07:14:07.006Z,1006.96
2018-06-14T07:14:47.446Z,1006.97
2018-06-14T07:15:27.811Z,1006.94
2018-06-14T07:16:08.253Z,1006.96
2018-06-14T07:16:48.880Z,1006.94
2018-06-14T07:17:29.079Z,1006.94
2018-06-14T07:18:09.496Z,1006.94
2018-06-14T07:18:50.055Z,1006.92
2018-06-14T07:19:30.353Z,1006.99
2018-06-14T07:20:11.119Z,1006.94
2018-06-14T07:20:52.117Z,1006.94
2018-06-14T07:21:32.603Z,1006.91
2018-06-14T07:22:12.918Z,1006.91
2018-06-14T07:22:53.368Z,1006.9
2018-06-14T07:23:33.768Z,1006.94
2018-06-14T07:24:14.265Z,1006.89
2018-06-14T07:24:54.722Z,1006.9
2018-06-14T07:25:35.169Z,1006.94
2018-06-14T07:26:15.672Z,1006.87
2018-06-14T07:26:57.191Z,1006.93
2018-06-14T07:27:37.814Z,1006.89
2018-06-14T07:28:20.116Z,1006.87
2018-06-14T07:29:00.604Z,1006.87
2018-06-14T07:29:41.003Z,1006.9
2018-06-14T07:30:21.465Z,1006.88
2018-06-14T07:31:01.879Z,1006.89
2018-06-14T07:31:42.294Z,1006.91
2018-06-14T07:32:22.699Z,1006.86
2018-06-14T07:33:03.942Z,1006.88
2018-06-14T07:33:44.398Z,1006.87
2018-06-14T07:34:24.807Z,1006.86
2018-06-14T07:35:05.206Z,1006.81
2018-06-14T07:35:45.703Z,1006.88
2018-06-14T07:36:26.463Z,1006.85
2018-06-14T07:37:07.017Z,1006.86
2018-06-14T07:37:47.443Z,1006.82
2018-06-14T07:38:27.887Z,1006.84
2018-06-14T07:39:08.288Z,1006.81
2018-06-14T07:39:48.720Z,1006.88
2018-06-14T07:40:29.164Z,1006.87
2018-06-14T07:41:09.542Z,1006.86
2018-06-14T07:41:49.954Z,1006.86
2018-06-14T07:42:30.408Z,1006.84
2018-06-14T07:43:10.936Z,1006.8
2018-06-14T07:43:51.371Z,1006.84
2018-06-14T07:44:31.866Z,1006.81
2018-06-14T07:45:12.400Z,1006.77
2018-06-14T07:45:53.131Z,1006.77
2018-06-14T07:46:33.578Z,1006.8
2018-06-14T07:47:14.229Z,1006.79
2018-06-14T07:47:55.301Z,1006.77
2018-06-14T07:48:35.221Z,1006.79
2018-06-14T07:49:15.841Z,1006.74
2018-06-14T07:49:58.741Z,1006.77
2018-06-14T07:50:38.800Z,1006.76
2018-06-14T07:51:19.239Z,1006.76
2018-06-14T07:53:56.190Z,1006.76
2018-06-14T07:55:03.674Z,1006.77
2018-06-14T07:57:36.387Z,1006.76
2018-06-14T07:58:16.768Z,1006.8
2018-06-14T07:58:57.219Z,1006.79
2018-06-14T07:59:37.883Z,1006.82
2018-06-14T08:00:18.383Z,1006.8
2018-06-14T08:00:58.958Z,1006.77
2018-06-14T08:01:39.787Z,1006.8
2018-06-14T08:02:20.283Z,1006.78
2018-06-14T08:03:00.972Z,1006.8
2018-06-14T08:03:41.475Z,1006.76
2018-06-14T08:04:22.358Z,1006.78
2018-06-14T08:05:03.295Z,1006.79
2018-06-14T08:05:43.332Z,1006.78
2018-06-14T08:06:23.899Z,1006.72
2018-06-14T08:07:04.354Z,1006.74
2018-06-14T08:07:44.728Z,1006.75
2018-06-14T08:08:25.210Z,1006.77
2018-06-14T08:10:30.982Z,1006.71
2018-06-14T08:11:12.974Z,1006.65
2018-06-14T08:11:58.887Z,1006.71
2018-06-14T08:12:42.303Z,1006.74
2018-06-14T08:13:27.969Z,1006.65
2018-06-14T08:14:30.018Z,1006.62
2018-06-14T08:15:09.095Z,1006.64
2018-06-14T08:15:51.315Z,1006.61
2018-06-14T08:16:35.151Z,1006.62
2018-06-14T08:17:26.208Z,1006.7
2018-06-14T08:18:10.094Z,1006.64
2018-06-14T08:18:53.944Z,1006.64
2018-06-14T08:19:38.559Z,1006.65
2018-06-14T08:20:18.906Z,1006.65
2018-06-14T08:24:22.619Z,1006.67
2018-06-14T08:25:03.549Z,1006.68
2018-06-14T08:25:43.275Z,1006.67
2018-06-14T08:26:24.480Z,1006.68
2018-06-14T08:27:04.688Z,1006.74
2018-06-14T08:27:45.215Z,1006.67
2018-06-14T08:28:25.752Z,1006.67
2018-06-14T08:29:06.044Z,1006.69
2018-06-14T08:29:46.520Z,1006.65
2018-06-14T08:30:28.717Z,1006.75
2018-06-14T08:31:09.167Z,1006.61
2018-06-14T08:31:49.608Z,1006.64
2018-06-14T08:32:30.303Z,1006.66
2018-06-14T08:35:02.101Z,1006.62
2018-06-14T08:35:42.497Z,1006.58
2018-06-14T08:36:23.752Z,1006.55
2018-06-14T08:37:04.230Z,1006.57
2018-06-14T08:37:44.661Z,1006.57
2018-06-14T08:38:25.111Z,1006.59
2018-06-14T08:39:06.444Z,1006.63
2018-06-14T08:39:47.338Z,1006.56
2018-06-14T08:40:27.913Z,1006.59
2018-06-14T08:42:59.027Z,1006.59
2018-06-14T08:43:39.455Z,1006.59
2018-06-14T08:44:20.722Z,1006.6
2018-06-14T08:45:03.766Z,1006.57
2018-06-14T08:45:45.906Z,1006.58
2018-06-14T08:46:30.927Z,1006.55
2018-06-14T08:47:11.468Z,1006.59
2018-06-14T08:47:52.022Z,1006.59
2018-06-14T08:48:32.545Z,1006.59
2018-06-14T08:49:13.501Z,1006.59
2018-06-14T08:49:54.679Z,1006.59
2018-06-14T08:50:37.068Z,1006.54
2018-06-14T08:51:17.385Z,1006.58
2018-06-14T08:51:58.925Z,1006.56
2018-06-14T08:52:40.975Z,1006.58
2018-06-14T08:53:21.540Z,1006.56
2018-06-14T08:54:02.465Z,1006.59
2018-06-14T08:54:43.113Z,1006.59
2018-06-14T08:55:24.165Z,1006.62
2018-06-14T08:58:48.808Z,1006.55
2018-06-14T08:59:32.828Z,1006.5
2018-06-14T09:00:13.280Z,1006.51
2018-06-14T09:00:53.873Z,1006.55
2018-06-14T09:01:34.263Z,1006.48
2018-06-14T09:02:15.291Z,1006.49
2018-06-14T09:02:55.823Z,1006.48
2018-06-14T09:03:37.234Z,1006.49
2018-06-14T09:04:17.306Z,1006.47
2018-06-14T09:04:58.871Z,1006.5
2018-06-14T09:05:39.517Z,1006.49
2018-06-14T09:06:20.810Z,1006.51
2018-06-14T09:07:00.505Z,1006.54
2018-06-14T09:07:41.227Z,1006.47
2018-06-14T09:08:22.154Z,1006.48
2018-06-14T09:09:04.277Z,1006.49
2018-06-14T09:09:45.224Z,1006.5
2018-06-14T09:10:26.058Z,1006.49
2018-06-14T09:11:06.482Z,1006.48
2018-06-14T09:11:47.889Z,1006.49
2018-06-14T09:12:30.496Z,1006.48
2018-06-14T09:13:11.008Z,1006.46
2018-06-14T09:13:51.544Z,1006.48
2018-06-14T09:14:32.600Z,1006.46
2018-06-14T09:15:13.935Z,1006.46
2018-06-14T09:15:55.845Z,1006.49
2018-06-14T09:16:36.223Z,1006.41
2018-06-14T09:17:16.842Z,1006.42
2018-06-14T09:17:57.470Z,1006.45
2018-06-14T09:18:37.953Z,1006.46
2018-06-14T09:19:21.668Z,1006.46
2018-06-14T09:20:02.260Z,1006.46
2018-06-14T09:20:43.419Z,1006.42
2018-06-14T09:21:24.075Z,1006.48
2018-06-14T09:22:04.998Z,1006.48
2018-06-14T09:22:45.614Z,1006.45
2018-06-14T09:23:26.404Z,1006.42